createdAt,value
2018-06-02T00:02:22.186Z,34.50
2018-06-02T00:04:55.871Z,36.13
2018-06-02T00:07:29.604Z,35.43
2018-06-02T00:10:03.882Z,34.20
2018-06-02T00:12:37.479Z,34.20
2018-06-02T00:15:11.233Z,34.20
2018-06-02T00:17:44.733Z,35.73
2018-06-02T00:20:18.299Z,34.77
2018-06-02T00:22:51.902Z,35.50
2018-06-02T00:25:25.464Z,35.83
2018-06-02T00:27:59.002Z,34.50
2018-06-02T00:30:32.691Z,35.03
2018-06-02T00:33:06.440Z,34.47
2018-06-02T00:35:40.299Z,35.97
2018-06-02T00:38:13.947Z,33.97
2018-06-02T00:40:47.560Z,35.33
2018-06-02T00:43:21.231Z,34.67
2018-06-02T00:45:54.837Z,34.17
2018-06-02T00:48:28.638Z,32.00
2018-06-02T00:51:02.303Z,34.77
2018-06-02T00:53:36.042Z,34.17
2018-06-02T00:56:09.547Z,34.93
2018-06-02T00:58:43.969Z,36.93
2018-06-02T01:01:17.526Z,37.07
2018-06-02T01:03:51.948Z,37.10
2018-06-02T01:06:25.690Z,37.03
2018-06-02T01:08:59.319Z,38.13
2018-06-02T01:11:32.967Z,38.53
2018-06-02T01:14:06.692Z,38.20
2018-06-02T01:16:41.325Z,39.47
2018-06-02T01:19:15.033Z,38.43
2018-06-02T01:21:49.401Z,39.93
2018-06-02T01:24:23.843Z,39.60
2018-06-02T01:26:57.570Z,40.60
2018-06-02T01:29:31.222Z,39.83
2018-06-02T01:32:05.791Z,41.57
2018-06-02T01:34:39.415Z,41.13
2018-06-02T01:37:13.226Z,43.10
2018-06-02T01:39:46.921Z,42.67
2018-06-02T01:42:20.820Z,42.07
2018-06-02T01:44:55.134Z,43.60
2018-06-02T01:47:28.902Z,42.70
2018-06-02T01:50:02.644Z,42.03
2018-06-02T01:52:37.267Z,43.20
2018-06-02T01:55:10.867Z,45.37
2018-06-02T01:57:44.579Z,43.60
2018-06-02T02:00:18.987Z,45.27
2018-06-02T02:02:52.577Z,45.57
2018-06-02T02:05:26.171Z,43.70
2018-06-02T02:07:59.799Z,45.43
2018-06-02T02:10:33.514Z,45.57
2018-06-02T02:13:07.301Z,47.17
2018-06-02T02:15:41.059Z,48.13
2018-06-02T02:18:14.599Z,47.73
2018-06-02T02:20:48.288Z,48.70
2018-06-02T02:23:22.106Z,48.70
2018-06-02T02:25:55.913Z,48.00
2018-06-02T02:28:29.733Z,47.53
2018-06-02T02:31:03.526Z,48.77
2018-06-02T02:33:37.951Z,51.23
2018-06-02T02:36:11.459Z,49.43
2018-06-02T02:38:45.154Z,50.33
2018-06-02T02:41:18.876Z,50.47
2018-06-02T02:43:52.554Z,49.67
2018-06-02T02:46:27.183Z,51.97
2018-06-02T02:49:00.786Z,51.67
2018-06-02T02:51:34.590Z,52.93
2018-06-02T02:54:08.113Z,53.10
2018-06-02T02:56:41.845Z,51.40
2018-06-02T02:59:15.508Z,54.77
2018-06-02T03:01:49.049Z,53.63
2018-06-02T03:04:22.800Z,52.67
2018-06-02T03:06:57.216Z,53.03
2018-06-02T03:09:31.032Z,53.83
2018-06-02T03:12:04.539Z,53.47
2018-06-02T03:14:38.229Z,53.07
2018-06-02T03:17:11.906Z,52.67
2018-06-02T03:19:45.839Z,51.43
2018-06-02T03:22:20.339Z,53.30
2018-06-02T03:24:54.055Z,54.23
2018-06-02T03:27:27.559Z,53.50
2018-06-02T03:30:01.268Z,53.87
2018-06-02T03:32:35.071Z,51.07
2018-06-02T03:35:08.799Z,49.93
2018-06-02T03:37:42.334Z,51.27
2018-06-02T03:40:16.074Z,53.70
2018-06-02T03:42:49.632Z,49.27
2018-06-02T03:45:23.165Z,49.93
2018-06-02T03:47:56.883Z,50.20
2018-06-02T03:50:30.477Z,53.00
2018-06-02T03:53:04.170Z,50.30
2018-06-02T03:55:37.774Z,51.27
2018-06-02T03:58:11.491Z,50.83
2018-06-02T04:00:45.012Z,51.47
2018-06-02T04:03:18.691Z,52.57
2018-06-02T04:05:52.494Z,50.10
2018-06-02T04:08:26.509Z,58.35
2018-06-02T04:11:00.306Z,50.57
2018-06-02T04:13:33.918Z,51.70
2018-06-02T04:16:07.714Z,51.73
2018-06-02T04:18:41.207Z,50.40
2018-06-02T04:21:14.919Z,52.57
2018-06-02T04:23:49.217Z,52.00
2018-06-02T04:26:22.912Z,53.30
2018-06-02T04:28:57.222Z,53.03
2018-06-02T04:31:30.891Z,54.27
2018-06-02T04:34:04.462Z,54.30
2018-06-02T04:36:38.025Z,55.70
2018-06-02T04:39:11.971Z,55.63
2018-06-02T04:41:45.647Z,55.13
2018-06-02T04:44:19.370Z,52.07
2018-06-02T04:46:53.078Z,53.17
2018-06-02T04:49:26.652Z,53.50
2018-06-02T04:52:00.301Z,52.83
2018-06-02T04:54:34.669Z,54.03
2018-06-02T04:57:08.286Z,52.17
2018-06-02T04:59:41.946Z,50.33
2018-06-02T05:02:15.815Z,53.30
2018-06-02T05:04:50.439Z,53.53
2018-06-02T05:07:24.238Z,51.63
2018-06-02T05:09:58.733Z,50.27
2018-06-02T05:12:32.675Z,51.67
2018-06-02T05:15:06.375Z,51.57
2018-06-02T05:17:40.286Z,51.70
2018-06-02T05:20:13.798Z,49.87
2018-06-02T05:22:47.691Z,48.93
2018-06-02T05:25:21.302Z,48.43
2018-06-02T05:27:55.310Z,48.43
2018-06-02T05:30:29.107Z,46.27
2018-06-02T05:33:03.408Z,47.20
2018-06-02T05:35:37.020Z,48.13
2018-06-02T05:38:10.734Z,45.23
2018-06-02T05:40:44.540Z,45.60
2018-06-02T05:43:18.178Z,43.93
2018-06-02T05:45:51.953Z,46.23
2018-06-02T05:48:26.227Z,44.33
2018-06-02T05:50:59.955Z,45.00
2018-06-02T05:53:34.386Z,41.27
2018-06-02T05:56:08.897Z,40.30
2018-06-02T05:58:42.475Z,39.33
2018-06-02T06:01:16.093Z,37.37
2018-06-02T06:03:49.674Z,35.97
2018-06-02T06:06:23.619Z,35.87
2018-06-02T06:08:57.323Z,36.83
2018-06-02T06:11:30.908Z,35.87
2018-06-02T06:14:04.828Z,35.73
2018-06-02T06:16:38.633Z,36.37
2018-06-02T06:19:12.439Z,36.73
2018-06-02T06:21:47.064Z,36.97
2018-06-02T06:24:20.783Z,38.73
2018-06-02T06:26:55.190Z,37.90
2018-06-02T06:29:28.964Z,41.20
2018-06-02T06:32:02.603Z,34.43
2018-06-02T06:34:36.193Z,39.93
2018-06-02T06:37:09.814Z,35.73
2018-06-02T06:39:43.569Z,34.00
2018-06-02T06:42:17.219Z,32.90
2018-06-02T06:44:50.881Z,32.33
2018-06-02T06:47:24.706Z,32.90
2018-06-02T06:49:58.328Z,31.57
2018-06-02T06:52:32.746Z,31.83
2018-06-02T06:55:06.538Z,32.90
2018-06-02T06:57:40.390Z,32.80
2018-06-02T07:00:14.161Z,33.07
2018-06-02T07:02:47.956Z,33.83
2018-06-02T07:05:21.558Z,33.63
2018-06-02T07:07:56.080Z,31.60
2018-06-02T07:10:29.992Z,35.07
2018-06-02T07:13:04.491Z,37.73
2018-06-02T07:15:38.445Z,37.83
2018-06-02T07:18:12.431Z,37.27
2018-06-02T07:20:46.098Z,38.93
2018-06-02T07:23:20.651Z,38.87
2018-06-02T07:25:54.158Z,37.70
2018-06-02T07:28:27.740Z,37.30
2018-06-02T07:31:01.319Z,40.33
2018-06-02T07:33:34.875Z,39.87
2018-06-02T07:36:08.686Z,39.90
2018-06-02T07:38:43.079Z,41.07
2018-06-02T07:41:16.886Z,42.20
2018-06-02T07:43:50.576Z,40.37
2018-06-02T07:46:24.986Z,40.60
2018-06-02T07:49:00.146Z,40.40
2018-06-02T07:51:33.950Z,42.33
2018-06-02T07:54:08.574Z,40.40
2018-06-02T07:56:42.384Z,38.10
2018-06-02T07:59:16.006Z,38.90
2018-06-02T08:01:51.220Z,38.47
2018-06-02T08:04:25.517Z,39.83
2018-06-02T08:06:59.243Z,38.57
2018-06-02T08:09:32.756Z,38.53
2018-06-02T08:12:06.311Z,36.47
2018-06-02T08:14:39.965Z,36.57
2018-06-02T08:17:13.525Z,35.03
2018-06-02T08:19:47.247Z,35.83
2018-06-02T08:22:21.056Z,34.77
2018-06-02T08:24:54.766Z,35.57
2018-06-02T08:27:28.463Z,36.20
2018-06-02T08:30:02.738Z,34.00
2018-06-02T08:32:36.693Z,32.17
2018-06-02T08:35:11.167Z,32.10
2018-06-02T08:37:44.754Z,32.90
2018-06-02T08:40:18.311Z,30.50
2018-06-02T08:42:51.931Z,31.03
2018-06-02T08:45:25.470Z,31.63
2018-06-02T08:47:59.815Z,31.83
2018-06-02T08:50:33.734Z,29.70
2018-06-02T08:53:07.542Z,29.23
2018-06-02T08:55:41.346Z,29.40
2018-06-02T08:58:14.947Z,30.27
2018-06-02T09:00:48.601Z,28.33
2018-06-02T09:03:22.326Z,29.30
2018-06-02T09:05:55.954Z,28.23
2018-06-02T09:08:30.370Z,29.73
2018-06-02T09:11:03.967Z,26.77
2018-06-02T09:13:38.479Z,27.37
2018-06-02T09:16:12.167Z,26.93
2018-06-02T09:18:45.830Z,27.00
2018-06-02T09:21:20.097Z,28.13
2018-06-02T09:23:54.031Z,27.87
2018-06-02T09:26:27.831Z,27.37
2018-06-02T09:29:02.338Z,27.53
2018-06-02T09:31:36.065Z,27.23
2018-06-02T09:34:09.648Z,26.10
2018-06-02T09:36:44.091Z,26.23
2018-06-02T09:39:17.890Z,26.10
2018-06-02T09:41:51.460Z,24.17
2018-06-02T09:44:25.786Z,24.10
2018-06-02T09:46:59.706Z,23.60
2018-06-02T09:49:33.347Z,23.77
2018-06-02T09:52:07.118Z,22.83
2018-06-02T09:54:41.743Z,23.07
2018-06-02T09:57:15.428Z,22.33
2018-06-02T09:59:49.376Z,23.20
2018-06-02T10:02:22.959Z,26.20
2018-06-02T10:04:56.765Z,24.40
2018-06-02T10:07:30.572Z,25.43
2018-06-02T10:10:04.171Z,24.03
2018-06-02T10:12:37.731Z,24.73
2018-06-02T10:15:11.259Z,24.53
2018-06-02T10:17:44.842Z,23.73
2018-06-02T10:20:18.780Z,24.93
2018-06-02T10:22:52.382Z,23.57
2018-06-02T10:25:25.983Z,23.20
2018-06-02T10:27:59.578Z,23.80
2018-06-02T10:30:33.382Z,23.03
2018-06-02T10:33:06.883Z,22.17
2018-06-02T10:35:41.374Z,23.03
2018-06-02T10:38:14.876Z,23.67
2018-06-02T10:40:49.317Z,23.17
2018-06-02T10:43:22.879Z,23.57
2018-06-02T10:45:57.332Z,24.10
2018-06-02T10:48:30.951Z,23.33
2018-06-02T10:51:05.975Z,24.30
2018-06-02T10:53:39.774Z,22.73
2018-06-02T10:56:13.476Z,23.30
2018-06-02T10:58:47.144Z,23.27
2018-06-02T11:01:20.894Z,21.73
2018-06-02T11:03:54.526Z,21.13
2018-06-02T11:06:28.195Z,20.00
2018-06-02T11:09:01.917Z,20.03
2018-06-02T11:11:35.547Z,16.83
2018-06-02T11:14:09.335Z,19.13
2018-06-02T11:16:42.902Z,19.07
2018-06-02T11:19:16.480Z,20.10
2018-06-02T11:21:50.115Z,17.53
2018-06-02T11:24:24.122Z,17.57
2018-06-02T11:26:57.932Z,16.67
2018-06-02T11:29:31.747Z,12.93
2018-06-02T11:32:05.540Z,14.20
2018-06-02T11:34:39.345Z,12.13
2018-06-02T11:37:12.966Z,12.53
2018-06-02T11:39:47.360Z,12.20
2018-06-02T11:42:21.100Z,11.90
2018-06-02T11:44:54.665Z,12.13
2018-06-02T11:47:28.386Z,12.37
2018-06-02T11:50:01.912Z,13.13
2018-06-02T11:52:35.691Z,11.57
2018-06-02T11:55:10.198Z,12.07
2018-06-02T11:57:44.007Z,11.90
2018-06-02T12:00:18.431Z,11.67
2018-06-02T12:02:52.235Z,12.00
2018-06-02T12:05:25.851Z,11.90
2018-06-02T12:07:59.439Z,11.43
2018-06-02T12:10:33.054Z,12.23
2018-06-02T12:13:06.802Z,11.30
2018-06-02T12:15:40.350Z,11.73
2018-06-02T12:18:14.234Z,11.07
2018-06-02T12:20:48.146Z,10.97
2018-06-02T12:23:21.858Z,10.23
2018-06-02T12:25:55.763Z,10.33
2018-06-02T12:28:29.579Z,11.00
2018-06-02T12:31:04.100Z,10.67
2018-06-02T12:33:37.703Z,10.03
2018-06-02T12:36:11.503Z,11.10
2018-06-02T12:38:45.383Z,7.77
2018-06-02T12:41:19.096Z,8.80
2018-06-02T12:43:52.996Z,7.17
2018-06-02T12:46:26.816Z,7.50
2018-06-02T12:49:00.735Z,8.00
2018-06-02T12:51:34.534Z,8.77
2018-06-02T12:54:08.961Z,8.90
2018-06-02T12:56:42.771Z,8.73
2018-06-02T12:59:17.451Z,8.30
2018-06-02T13:01:51.187Z,8.90
2018-06-02T13:04:25.711Z,9.23
2018-06-02T13:07:00.244Z,8.97
2018-06-02T13:09:35.546Z,8.47
2018-06-02T13:12:09.445Z,8.77
2018-06-02T13:14:43.214Z,8.27
2018-06-02T13:17:16.700Z,8.43
2018-06-02T13:19:50.196Z,8.53
2018-06-02T13:22:24.112Z,8.57
2018-06-02T13:24:58.598Z,7.93
2018-06-02T13:27:32.241Z,8.50
2018-06-02T13:30:05.930Z,8.67
2018-06-02T13:32:39.735Z,10.40
2018-06-02T13:35:13.544Z,10.40
2018-06-02T13:37:47.143Z,11.23
2018-06-02T13:40:21.647Z,10.93
2018-06-02T13:42:55.455Z,9.83
2018-06-02T13:45:29.180Z,10.40
2018-06-02T13:48:02.768Z,10.77
2018-06-02T13:50:37.066Z,10.27
2018-06-02T13:53:10.796Z,10.17
2018-06-02T13:55:45.210Z,9.90
2018-06-02T13:58:19.023Z,10.40
2018-06-02T14:00:52.827Z,11.33
2018-06-02T14:03:26.447Z,11.70
2018-06-02T14:06:00.154Z,12.63
2018-06-02T14:08:33.832Z,11.60
2018-06-02T14:11:07.436Z,12.60
2018-06-02T14:13:41.963Z,13.40
2018-06-02T14:16:15.862Z,14.37
2018-06-02T14:18:49.535Z,14.03
2018-06-02T14:21:23.078Z,15.67
2018-06-02T14:23:56.810Z,15.93
2018-06-02T14:26:30.542Z,15.70
2018-06-02T14:29:04.487Z,16.70
2018-06-02T14:31:38.211Z,15.83
2018-06-02T14:34:12.088Z,17.07
2018-06-02T14:36:46.399Z,16.50
2018-06-02T14:39:20.122Z,15.90
2018-06-02T14:41:53.715Z,17.93
2018-06-02T14:44:27.273Z,17.53
2018-06-02T14:47:01.002Z,17.33
2018-06-02T14:49:34.727Z,17.57
2018-06-02T14:52:08.562Z,16.07
2018-06-02T14:54:42.282Z,16.03
2018-06-02T14:57:16.055Z,17.00
2018-06-02T14:59:49.742Z,16.73
2018-06-02T15:02:23.555Z,17.17
2018-06-02T15:04:57.227Z,16.90
2018-06-02T15:07:30.838Z,16.30
2018-06-02T15:10:05.384Z,16.50
2018-06-02T15:12:39.394Z,16.03
2018-06-02T15:15:13.678Z,17.67
2018-06-02T15:17:47.618Z,16.97
2018-06-02T15:20:21.219Z,17.93
2018-06-02T15:22:56.699Z,16.90
2018-06-02T15:25:30.463Z,17.93
2018-06-02T15:28:04.150Z,19.57
2018-06-02T15:30:37.731Z,18.43
2018-06-02T15:33:11.300Z,18.33
2018-06-02T15:35:45.888Z,19.70
2018-06-02T15:38:19.591Z,18.40
2018-06-02T15:40:53.303Z,18.67
2018-06-02T15:43:27.098Z,18.10
2018-06-02T15:46:00.916Z,18.43
2018-06-02T15:48:35.427Z,18.93
2018-06-02T15:51:09.127Z,19.07
2018-06-02T15:53:42.778Z,18.20
2018-06-02T15:56:16.334Z,18.13
2018-06-02T15:58:50.043Z,18.23
2018-06-02T16:01:23.948Z,17.67
2018-06-02T16:03:58.247Z,17.87
2018-06-02T16:06:31.830Z,18.00
2018-06-02T16:09:05.363Z,17.60
2018-06-02T16:11:39.166Z,17.97
2018-06-02T16:14:13.062Z,17.23
2018-06-02T16:16:46.779Z,19.03
2018-06-02T16:19:20.298Z,18.50
2018-06-02T16:21:54.196Z,18.60
2018-06-02T16:24:27.827Z,18.13
2018-06-02T16:27:01.594Z,18.47
2018-06-02T16:29:35.278Z,18.17
2018-06-02T16:32:08.869Z,19.13
2018-06-02T16:34:42.519Z,19.73
2018-06-02T16:37:16.167Z,18.80
2018-06-02T16:39:50.831Z,18.33
2018-06-02T16:42:24.497Z,18.20
2018-06-02T16:44:58.114Z,19.40
2018-06-02T16:47:31.835Z,19.20
2018-06-02T16:50:05.739Z,19.17
2018-06-02T16:52:39.343Z,19.90
2018-06-02T16:55:13.166Z,20.67
2018-06-02T16:57:47.864Z,18.60
2018-06-02T17:00:21.431Z,20.27
2018-06-02T17:02:55.303Z,20.70
2018-06-02T17:05:29.016Z,20.00
2018-06-02T17:08:02.895Z,21.70
2018-06-02T17:10:36.755Z,20.53
2018-06-02T17:13:10.371Z,22.30
2018-06-02T17:15:44.111Z,20.47
2018-06-02T17:18:19.115Z,21.53
2018-06-02T17:20:52.832Z,21.70
2018-06-02T17:23:28.063Z,21.33
2018-06-02T17:26:01.992Z,21.43
2018-06-02T17:28:35.606Z,22.73
2018-06-02T17:31:09.447Z,22.83
2018-06-02T17:33:43.118Z,21.97
2018-06-02T17:36:17.214Z,23.10
2018-06-02T17:38:50.975Z,21.43
2018-06-02T17:41:25.440Z,21.53
2018-06-02T17:43:59.210Z,23.17
2018-06-02T17:46:32.853Z,20.93
2018-06-02T17:49:06.652Z,21.67
2018-06-02T17:51:40.460Z,21.47
2018-06-02T17:54:14.264Z,21.53
2018-06-02T17:56:47.921Z,23.03
2018-06-02T17:59:21.710Z,22.57
2018-06-02T18:01:55.235Z,23.47
2018-06-02T18:04:29.075Z,20.63
2018-06-02T18:07:02.681Z,21.37
2018-06-02T18:09:36.371Z,22.00
2018-06-02T18:12:12.004Z,23.13
2018-06-02T18:14:45.659Z,22.00
2018-06-02T18:17:19.335Z,23.07
2018-06-02T18:19:52.875Z,23.00
2018-06-02T18:22:26.625Z,24.93
2018-06-02T18:25:00.358Z,25.60
2018-06-02T18:27:34.195Z,24.97
2018-06-02T18:30:07.929Z,25.20
2018-06-02T18:32:41.574Z,25.50
2018-06-02T18:35:15.138Z,24.83
2018-06-02T18:37:48.770Z,23.97
2018-06-02T18:40:22.516Z,25.60
2018-06-02T18:42:56.186Z,25.90
2018-06-02T18:45:29.976Z,25.43
2018-06-02T18:48:05.076Z,25.67
2018-06-02T18:50:38.798Z,25.90
2018-06-02T18:53:13.036Z,26.43
2018-06-02T18:55:46.794Z,26.90
2018-06-02T18:58:20.319Z,27.03
2018-06-02T19:00:54.031Z,26.23
2018-06-02T19:03:27.848Z,26.03
2018-06-02T19:06:01.531Z,27.70
2018-06-02T19:08:35.047Z,27.87
2018-06-02T19:11:08.730Z,27.47
2018-06-02T19:13:43.186Z,26.73
2018-06-02T19:16:17.567Z,28.77
2018-06-02T19:18:51.365Z,27.73
2018-06-02T19:21:25.086Z,27.83
2018-06-02T19:23:58.896Z,27.93
2018-06-02T19:26:32.576Z,28.20
2018-06-02T19:29:06.303Z,29.53
2018-06-02T19:31:40.109Z,27.37
2018-06-02T19:34:13.771Z,27.37
2018-06-02T19:36:47.599Z,26.73
2018-06-02T19:39:21.523Z,29.00
2018-06-02T19:41:55.332Z,29.13
2018-06-02T19:44:29.134Z,28.97
2018-06-02T19:47:02.823Z,27.87
2018-06-02T19:50:13.335Z,29.40
2018-06-02T19:52:47.653Z,28.70
2018-06-02T19:55:22.011Z,28.90
2018-06-02T19:57:56.371Z,28.73
2018-06-02T20:00:30.690Z,27.63
2018-06-02T20:03:04.956Z,27.80
2018-06-02T20:05:39.354Z,28.83
2018-06-02T20:08:13.672Z,28.43
2018-06-02T20:10:48.027Z,27.73
2018-06-02T20:13:22.456Z,28.03
2018-06-02T20:15:57.174Z,28.50
2018-06-02T20:18:31.342Z,28.57
2018-06-02T20:21:05.591Z,30.97
2018-06-02T20:23:39.855Z,30.13
2018-06-02T20:26:14.044Z,31.13
2018-06-02T20:28:48.362Z,31.30
2018-06-02T20:31:22.740Z,31.27
2018-06-02T20:33:56.959Z,31.27
2018-06-02T20:36:31.255Z,31.00
2018-06-02T20:39:06.075Z,31.50
2018-06-02T20:41:40.470Z,30.30
2018-06-02T20:44:14.628Z,30.80
2018-06-02T20:46:48.833Z,30.43
2018-06-02T20:49:23.070Z,32.97
2018-06-02T20:51:57.255Z,28.33
2018-06-02T20:54:31.448Z,30.67
2018-06-02T20:57:05.839Z,29.83
2018-06-02T20:59:40.158Z,30.27
2018-06-02T21:02:14.619Z,28.53
2018-06-02T21:04:48.912Z,29.33
2018-06-02T21:07:23.103Z,28.70
2018-06-02T21:09:57.242Z,29.50
2018-06-02T21:12:31.480Z,29.23
2018-06-02T21:15:05.719Z,29.93
2018-06-02T21:17:40.189Z,28.27
2018-06-02T21:20:14.769Z,27.97
2018-06-02T21:22:48.966Z,26.57
2018-06-02T21:25:23.355Z,28.37
2018-06-02T21:27:57.533Z,26.07
2018-06-02T21:30:32.006Z,27.60
2018-06-02T21:33:06.282Z,25.83
2018-06-02T21:35:40.661Z,29.07
2018-06-02T21:38:15.125Z,28.30
2018-06-02T21:40:49.586Z,27.13
2018-06-02T21:43:30.397Z,27.93
2018-06-02T21:46:04.813Z,28.03
2018-06-02T21:48:39.232Z,26.80
2018-06-02T21:51:13.274Z,28.83
2018-06-02T21:53:47.588Z,28.50
2018-06-02T21:56:21.961Z,29.30
2018-06-02T21:58:56.258Z,28.27
2018-06-02T22:01:30.571Z,29.60
2018-06-02T22:04:04.776Z,28.43
2018-06-02T22:06:39.064Z,27.50
2018-06-02T22:09:13.362Z,28.20
2018-06-02T22:11:47.751Z,30.53
2018-06-02T22:14:21.914Z,35.67
2018-06-02T22:16:56.262Z,34.53
2018-06-02T22:19:30.522Z,34.37
2018-06-02T22:22:04.795Z,32.63
2018-06-02T22:24:39.190Z,30.67
2018-06-02T22:27:13.555Z,30.13
2018-06-02T22:29:47.762Z,30.33
2018-06-02T22:32:22.207Z,28.63
2018-06-02T22:34:56.620Z,29.43
2018-06-02T22:37:30.904Z,29.33
2018-06-02T22:40:05.204Z,29.43
2018-06-02T22:42:39.513Z,29.40
2018-06-02T22:45:13.684Z,30.00
2018-06-02T22:47:47.887Z,30.40
2018-06-02T22:50:22.070Z,29.27
2018-06-02T22:52:56.580Z,30.03
2018-06-02T22:55:30.823Z,30.50
2018-06-02T22:58:05.085Z,30.57
2018-06-02T23:00:39.350Z,29.57
2018-06-02T23:03:13.781Z,29.83
2018-06-02T23:05:48.122Z,31.43
2018-06-02T23:08:22.448Z,31.03
2018-06-02T23:10:56.691Z,31.50
2018-06-02T23:13:30.876Z,30.23
2018-06-02T23:16:05.241Z,31.83
2018-06-02T23:18:39.603Z,31.63
2018-06-02T23:21:14.005Z,31.87
2018-06-02T23:23:48.288Z,30.63
2018-06-02T23:26:22.611Z,31.60
2018-06-02T23:28:57.019Z,30.63
2018-06-02T23:31:31.340Z,30.03
2018-06-02T23:34:05.628Z,29.90
2018-06-02T23:36:39.959Z,30.63
2018-06-02T23:39:14.240Z,30.97
2018-06-02T23:41:48.544Z,29.93
2018-06-02T23:44:22.599Z,31.30
2018-06-02T23:46:56.752Z,31.53
2018-06-02T23:49:31.330Z,29.93
2018-06-02T23:52:05.904Z,32.17
2018-06-02T23:54:41.856Z,31.00
2018-06-02T23:57:16.048Z,32.53
2018-06-02T23:59:50.307Z,30.93
